sensor_id;sensor_type;location;lat;lon;timestamp;pressure;altitude;pressure_sealevel;temperature;humidity
11347;BME280;5728;42.722;23.258;2022-10-17T00:00:43;96051.13;;;6.61;94.40
11347;BME280;5728;42.722;23.258;2022-10-17T00:03:10;96053.69;;;6.59;94.73
11347;BME280;5728;42.722;23.258;2022-10-17T00:05:38;96050.56;;;6.75;93.62
11347;BME280;5728;42.722;23.258;2022-10-17T00:08:05;96053.41;;;6.89;92.54
11347;BME280;5728;42.722;23.258;2022-10-17T00:10:32;96052.47;;;6.85;93.01
11347;BME280;5728;42.722;23.258;2022-10-17T00:13:00;96051.22;;;6.65;93.08
11347;BME280;5728;42.722;23.258;2022-10-17T00:15:27;96049.69;;;6.75;93.52
11347;BME280;5728;42.722;23.258;2022-10-17T00:17:54;96053.22;;;6.80;92.60
11347;BME280;5728;42.722;23.258;2022-10-17T00:20:20;96052.38;;;6.81;92.69
11347;BME280;5728;42.722;23.258;2022-10-17T00:22:47;96052.31;;;6.76;92.50
11347;BME280;5728;42.722;23.258;2022-10-17T00:25:14;96059.84;;;6.67;93.01
11347;BME280;5728;42.722;23.258;2022-10-17T00:27:41;96057.00;;;6.97;92.59
11347;BME280;5728;42.722;23.258;2022-10-17T00:30:11;96055.47;;;7.06;92.17
11347;BME280;5728;42.722;23.258;2022-10-17T00:32:39;96058.09;;;7.10;92.34
11347;BME280;5728;42.722;23.258;2022-10-17T00:35:07;96053.09;;;7.19;91.79
11347;BME280;5728;42.722;23.258;2022-10-17T00:37:34;96048.41;;;7.46;90.29
11347;BME280;5728;42.722;23.258;2022-10-17T00:40:00;96062.44;;;7.61;89.44
11347;BME280;5728;42.722;23.258;2022-10-17T00:42:27;96062.91;;;7.90;87.11
11347;BME280;5728;42.722;23.258;2022-10-17T00:44:59;96068.75;;;7.79;86.57
11347;BME280;5728;42.722;23.258;2022-10-17T00:47:28;96065.69;;;8.04;85.23
11347;BME280;5728;42.722;23.258;2022-10-17T00:49:55;96063.16;;;8.05;84.71
11347;BME280;5728;42.722;23.258;2022-10-17T00:52:25;96068.16;;;7.96;84.14
11347;BME280;5728;42.722;23.258;2022-10-17T00:54:54;96076.47;;;7.77;85.30
11347;BME280;5728;42.722;23.258;2022-10-17T00:57:23;96061.84;;;7.78;84.44
11347;BME280;5728;42.722;23.258;2022-10-17T00:59:52;96071.25;;;7.74;84.41
11347;BME280;5728;42.722;23.258;2022-10-17T01:02:21;96065.22;;;7.73;84.73
11347;BME280;5728;42.722;23.258;2022-10-17T01:04:50;96066.22;;;7.82;83.55
11347;BME280;5728;42.722;23.258;2022-10-17T01:07:19;96068.91;;;7.89;83.61
11347;BME280;5728;42.722;23.258;2022-10-17T01:09:46;96068.38;;;7.56;86.12
11347;BME280;5728;42.722;23.258;2022-10-17T01:12:18;96068.19;;;7.45;88.50
11347;BME280;5728;42.722;23.258;2022-10-17T01:14:57;96068.16;;;7.44;88.26
11347;BME280;5728;42.722;23.258;2022-10-17T01:17:35;96064.63;;;7.39;88.09
11347;BME280;5728;42.722;23.258;2022-10-17T01:23:17;96067.03;;;7.81;86.16
11347;BME280;5728;42.722;23.258;2022-10-17T01:25:54;96075.78;;;7.38;86.46
11347;BME280;5728;42.722;23.258;2022-10-17T01:28:49;96059.47;;;7.40;87.50
11347;BME280;5728;42.722;23.258;2022-10-17T01:31:27;96061.94;;;6.86;88.09
11347;BME280;5728;42.722;23.258;2022-10-17T01:34:00;96058.13;;;7.13;88.57
11347;BME280;5728;42.722;23.258;2022-10-17T01:36:38;96063.72;;;6.47;90.05
11347;BME280;5728;42.722;23.258;2022-10-17T01:39:14;96060.94;;;6.36;91.96
11347;BME280;5728;42.722;23.258;2022-10-17T01:41:48;96059.53;;;6.52;93.13
11347;BME280;5728;42.722;23.258;2022-10-17T01:44:18;96058.94;;;6.25;93.15
11347;BME280;5728;42.722;23.258;2022-10-17T01:46:49;96078.00;;;6.31;93.90
11347;BME280;5728;42.722;23.258;2022-10-17T01:49:19;96075.31;;;6.27;94.22
11347;BME280;5728;42.722;23.258;2022-10-17T01:51:50;96072.38;;;6.49;93.81
11347;BME280;5728;42.722;23.258;2022-10-17T01:54:22;96079.88;;;6.38;92.64
11347;BME280;5728;42.722;23.258;2022-10-17T01:56:54;96065.47;;;6.09;94.12
11347;BME280;5728;42.722;23.258;2022-10-17T01:59:25;96084.25;;;5.69;96.19
11347;BME280;5728;42.722;23.258;2022-10-17T02:01:57;96086.13;;;5.76;96.75
11347;BME280;5728;42.722;23.258;2022-10-17T02:04:25;96086.41;;;5.86;96.13
11347;BME280;5728;42.722;23.258;2022-10-17T02:06:51;96088.19;;;5.90;95.71
11347;BME280;5728;42.722;23.258;2022-10-17T02:09:21;96093.34;;;5.90;95.93
11347;BME280;5728;42.722;23.258;2022-10-17T02:12:07;96089.25;;;5.63;96.94
11347;BME280;5728;42.722;23.258;2022-10-17T02:14:46;96089.31;;;5.66;97.59
11347;BME280;5728;42.722;23.258;2022-10-17T02:17:27;96090.03;;;5.94;97.15
11347;BME280;5728;42.722;23.258;2022-10-17T02:20:09;96098.50;;;5.90;96.55
11347;BME280;5728;42.722;23.258;2022-10-17T02:22:43;96093.97;;;6.17;95.12
11347;BME280;5728;42.722;23.258;2022-10-17T02:25:17;96093.88;;;6.51;94.00
11347;BME280;5728;42.722;23.258;2022-10-17T02:27:49;96092.66;;;6.76;92.40
11347;BME280;5728;42.722;23.258;2022-10-17T02:30:23;96088.78;;;6.97;90.75
11347;BME280;5728;42.722;23.258;2022-10-17T02:32:57;96092.72;;;7.22;89.19
11347;BME280;5728;42.722;23.258;2022-10-17T02:35:27;96104.84;;;7.28;88.88
11347;BME280;5728;42.722;23.258;2022-10-17T02:37:56;96097.44;;;7.44;88.08
11347;BME280;5728;42.722;23.258;2022-10-17T02:40:24;96101.84;;;7.50;87.27
11347;BME280;5728;42.722;23.258;2022-10-17T02:42:53;96108.56;;;7.43;87.49
11347;BME280;5728;42.722;23.258;2022-10-17T02:45:21;96100.31;;;7.15;89.20
11347;BME280;5728;42.722;23.258;2022-10-17T02:47:54;96104.31;;;6.99;89.54
11347;BME280;5728;42.722;23.258;2022-10-17T02:50:27;96110.72;;;7.19;88.24
11347;BME280;5728;42.722;23.258;2022-10-17T02:52:59;96115.34;;;7.37;87.35
11347;BME280;5728;42.722;23.258;2022-10-17T02:55:30;96111.97;;;6.96;87.25
11347;BME280;5728;42.722;23.258;2022-10-17T02:57:59;96110.53;;;7.10;87.74
11347;BME280;5728;42.722;23.258;2022-10-17T03:00:28;96123.47;;;7.13;87.43
11347;BME280;5728;42.722;23.258;2022-10-17T03:02:56;96121.19;;;7.28;86.08
11347;BME280;5728;42.722;23.258;2022-10-17T03:05:25;96122.44;;;7.02;86.66
11347;BME280;5728;42.722;23.258;2022-10-17T03:07:53;96126.75;;;6.63;87.79
11347;BME280;5728;42.722;23.258;2022-10-17T03:10:21;96127.81;;;6.72;88.13
11347;BME280;5728;42.722;23.258;2022-10-17T03:12:48;96126.88;;;6.30;89.11
11347;BME280;5728;42.722;23.258;2022-10-17T03:15:15;96132.91;;;6.29;89.66
11347;BME280;5728;42.722;23.258;2022-10-17T03:17:41;96133.84;;;5.97;90.34
11347;BME280;5728;42.722;23.258;2022-10-17T03:20:10;96137.16;;;5.58;92.73
11347;BME280;5728;42.722;23.258;2022-10-17T03:22:37;96138.19;;;5.66;93.89
11347;BME280;5728;42.722;23.258;2022-10-17T03:25:04;96136.47;;;6.00;92.28
11347;BME280;5728;42.722;23.258;2022-10-17T03:27:30;96135.88;;;5.75;92.49
11347;BME280;5728;42.722;23.258;2022-10-17T03:29:57;96130.47;;;5.32;94.07
11347;BME280;5728;42.722;23.258;2022-10-17T03:32:24;96136.50;;;5.34;95.47
11347;BME280;5728;42.722;23.258;2022-10-17T03:34:51;96134.19;;;5.43;96.49
11347;BME280;5728;42.722;23.258;2022-10-17T03:37:19;96136.91;;;5.49;95.22
11347;BME280;5728;42.722;23.258;2022-10-17T03:39:45;96143.94;;;5.56;94.53
11347;BME280;5728;42.722;23.258;2022-10-17T03:42:12;96135.94;;;5.78;93.54
11347;BME280;5728;42.722;23.258;2022-10-17T03:44:39;96141.03;;;5.77;92.77
11347;BME280;5728;42.722;23.258;2022-10-17T03:47:06;96149.25;;;5.62;93.49
11347;BME280;5728;42.722;23.258;2022-10-17T03:49:33;96145.47;;;5.48;93.51
11347;BME280;5728;42.722;23.258;2022-10-17T03:51:59;96143.94;;;5.89;92.97
11347;BME280;5728;42.722;23.258;2022-10-17T03:54:28;96152.09;;;6.06;92.00
11347;BME280;5728;42.722;23.258;2022-10-17T03:56:54;96144.53;;;6.13;91.62
11347;BME280;5728;42.722;23.258;2022-10-17T03:59:21;96152.56;;;6.27;91.29
11347;BME280;5728;42.722;23.258;2022-10-17T04:01:48;96144.63;;;6.55;89.68
11347;BME280;5728;42.722;23.258;2022-10-17T04:04:15;96151.88;;;6.71;88.59
11347;BME280;5728;42.722;23.258;2022-10-17T04:06:41;96150.34;;;6.82;87.83
11347;BME280;5728;42.722;23.258;2022-10-17T04:09:09;96160.66;;;6.82;87.48
11347;BME280;5728;42.722;23.258;2022-10-17T04:11:37;96155.63;;;6.87;86.34
11347;BME280;5728;42.722;23.258;2022-10-17T04:14:04;96157.50;;;6.95;86.31
11347;BME280;5728;42.722;23.258;2022-10-17T04:16:31;96148.25;;;7.05;86.11
11347;BME280;5728;42.722;23.258;2022-10-17T04:18:59;96152.44;;;6.98;85.53
11347;BME280;5728;42.722;23.258;2022-10-17T04:21:27;96152.66;;;7.11;84.69
11347;BME280;5728;42.722;23.258;2022-10-17T04:23:54;96155.28;;;7.12;85.17
11347;BME280;5728;42.722;23.258;2022-10-17T04:26:22;96159.69;;;7.18;84.49
11347;BME280;5728;42.722;23.258;2022-10-17T04:28:50;96169.16;;;7.19;84.88
11347;BME280;5728;42.722;23.258;2022-10-17T04:31:17;96167.41;;;7.18;85.30
11347;BME280;5728;42.722;23.258;2022-10-17T04:33:46;96163.94;;;7.14;85.00
11347;BME280;5728;42.722;23.258;2022-10-17T04:36:15;96173.66;;;7.29;84.38
11347;BME280;5728;42.722;23.258;2022-10-17T04:38:42;96171.22;;;7.35;84.15
11347;BME280;5728;42.722;23.258;2022-10-17T04:41:11;96168.06;;;7.07;84.98
11347;BME280;5728;42.722;23.258;2022-10-17T04:43:38;96182.06;;;7.19;84.86
11347;BME280;5728;42.722;23.258;2022-10-17T04:46:08;96168.38;;;7.23;84.41
11347;BME280;5728;42.722;23.258;2022-10-17T04:48:36;96177.81;;;7.21;84.00
11347;BME280;5728;42.722;23.258;2022-10-17T04:51:04;96168.28;;;7.17;84.11
11347;BME280;5728;42.722;23.258;2022-10-17T04:53:33;96174.91;;;7.05;84.99
11347;BME280;5728;42.722;23.258;2022-10-17T04:56:00;96173.06;;;6.98;85.03
11347;BME280;5728;42.722;23.258;2022-10-17T04:58:28;96177.56;;;7.08;84.89
11347;BME280;5728;42.722;23.258;2022-10-17T05:00:55;96180.38;;;7.21;83.85
11347;BME280;5728;42.722;23.258;2022-10-17T05:03:23;96178.53;;;7.15;83.85
11347;BME280;5728;42.722;23.258;2022-10-17T05:05:50;96176.97;;;7.22;83.60
11347;BME280;5728;42.722;23.258;2022-10-17T05:08:17;96182.13;;;7.22;83.97
11347;BME280;5728;42.722;23.258;2022-10-17T05:10:44;96190.91;;;7.30;83.54
11347;BME280;5728;42.722;23.258;2022-10-17T05:13:12;96182.88;;;7.16;83.66
11347;BME280;5728;42.722;23.258;2022-10-17T05:15:39;96191.72;;;7.27;83.72
11347;BME280;5728;42.722;23.258;2022-10-17T05:18:05;96188.28;;;7.28;83.73
11347;BME280;5728;42.722;23.258;2022-10-17T05:20:34;96187.78;;;7.04;84.59
11347;BME280;5728;42.722;23.258;2022-10-17T05:23:01;96204.47;;;7.20;84.25
11347;BME280;5728;42.722;23.258;2022-10-17T05:25:28;96201.31;;;7.34;83.43
11347;BME280;5728;42.722;23.258;2022-10-17T05:27:54;96199.59;;;7.35;83.71
11347;BME280;5728;42.722;23.258;2022-10-17T05:30:21;96207.44;;;7.41;83.40
11347;BME280;5728;42.722;23.258;2022-10-17T05:32:51;96209.19;;;7.42;84.10
11347;BME280;5728;42.722;23.258;2022-10-17T05:35:18;96203.44;;;7.55;83.80
11347;BME280;5728;42.722;23.258;2022-10-17T05:37:47;96210.25;;;7.53;83.92
11347;BME280;5728;42.722;23.258;2022-10-17T05:40:13;96213.09;;;7.66;83.33
11347;BME280;5728;42.722;23.258;2022-10-17T05:42:44;96214.88;;;7.70;83.18
11347;BME280;5728;42.722;23.258;2022-10-17T05:45:11;96221.06;;;7.79;83.79
11347;BME280;5728;42.722;23.258;2022-10-17T05:47:38;96229.09;;;7.94;82.73
11347;BME280;5728;42.722;23.258;2022-10-17T05:50:06;96232.81;;;8.08;82.03
11347;BME280;5728;42.722;23.258;2022-10-17T05:52:33;96234.06;;;8.29;81.89
11347;BME280;5728;42.722;23.258;2022-10-17T05:55:01;96240.19;;;8.36;81.47
11347;BME280;5728;42.722;23.258;2022-10-17T05:57:28;96232.56;;;8.44;81.67
11347;BME280;5728;42.722;23.258;2022-10-17T05:59:55;96235.66;;;8.77;80.49
11347;BME280;5728;42.722;23.258;2022-10-17T06:02:22;96242.72;;;8.87;80.51
11347;BME280;5728;42.722;23.258;2022-10-17T06:04:48;96241.94;;;8.92;79.11
11347;BME280;5728;42.722;23.258;2022-10-17T06:07:15;96245.78;;;9.22;76.87
11347;BME280;5728;42.722;23.258;2022-10-17T06:09:42;96249.38;;;9.31;77.75
11347;BME280;5728;42.722;23.258;2022-10-17T06:12:11;96250.13;;;9.21;77.91
11347;BME280;5728;42.722;23.258;2022-10-17T06:14:37;96247.88;;;9.50;77.02
11347;BME280;5728;42.722;23.258;2022-10-17T06:17:04;96251.63;;;9.72;76.13
11347;BME280;5728;42.722;23.258;2022-10-17T06:19:31;96252.53;;;9.78;75.31
11347;BME280;5728;42.722;23.258;2022-10-17T06:21:58;96248.16;;;9.71;76.36
11347;BME280;5728;42.722;23.258;2022-10-17T06:24:24;96257.75;;;9.83;75.19
11347;BME280;5728;42.722;23.258;2022-10-17T06:26:51;96265.94;;;10.16;74.26
11347;BME280;5728;42.722;23.258;2022-10-17T06:29:19;96266.81;;;10.16;73.65
11347;BME280;5728;42.722;23.258;2022-10-17T06:31:47;96273.16;;;10.50;73.82
11347;BME280;5728;42.722;23.258;2022-10-17T06:34:14;96265.59;;;10.76;71.51
11347;BME280;5728;42.722;23.258;2022-10-17T06:36:40;96273.38;;;10.76;70.66
11347;BME280;5728;42.722;23.258;2022-10-17T06:39:07;96271.59;;;10.69;71.46
11347;BME280;5728;42.722;23.258;2022-10-17T06:41:34;96276.75;;;10.64;72.19
11347;BME280;5728;42.722;23.258;2022-10-17T06:44:01;96281.22;;;10.83;71.88
11347;BME280;5728;42.722;23.258;2022-10-17T06:46:34;96277.78;;;10.86;72.45
11347;BME280;5728;42.722;23.258;2022-10-17T06:49:00;96269.16;;;10.90;72.49
11347;BME280;5728;42.722;23.258;2022-10-17T06:51:29;96272.72;;;11.01;73.33
11347;BME280;5728;42.722;23.258;2022-10-17T06:53:56;96277.16;;;11.19;73.01
11347;BME280;5728;42.722;23.258;2022-10-17T06:56:23;96265.94;;;11.26;72.36
11347;BME280;5728;42.722;23.258;2022-10-17T06:58:50;96273.84;;;11.47;70.44
11347;BME280;5728;42.722;23.258;2022-10-17T07:01:17;96270.53;;;11.74;68.56
11347;BME280;5728;42.722;23.258;2022-10-17T07:03:46;96273.91;;;11.59;69.90
11347;BME280;5728;42.722;23.258;2022-10-17T07:06:13;96282.50;;;11.49;70.56
11347;BME280;5728;42.722;23.258;2022-10-17T07:08:41;96276.63;;;11.73;68.96
11347;BME280;5728;42.722;23.258;2022-10-17T07:11:08;96280.19;;;12.06;69.80
11347;BME280;5728;42.722;23.258;2022-10-17T07:13:35;96274.16;;;12.27;68.43
11347;BME280;5728;42.722;23.258;2022-10-17T07:16:03;96278.47;;;12.16;69.62
11347;BME280;5728;42.722;23.258;2022-10-17T07:18:29;96272.44;;;12.28;67.70
11347;BME280;5728;42.722;23.258;2022-10-17T07:20:58;96274.94;;;11.99;68.22
11347;BME280;5728;42.722;23.258;2022-10-17T07:23:25;96268.97;;;12.44;69.33
11347;BME280;5728;42.722;23.258;2022-10-17T07:25:52;96274.19;;;12.45;67.16
11347;BME280;5728;42.722;23.258;2022-10-17T07:28:18;96276.81;;;12.41;67.25
11347;BME280;5728;42.722;23.258;2022-10-17T07:30:46;96272.50;;;12.91;66.14
11347;BME280;5728;42.722;23.258;2022-10-17T07:33:13;96274.22;;;12.92;65.19
11347;BME280;5728;42.722;23.258;2022-10-17T07:35:39;96275.97;;;13.08;66.56
11347;BME280;5728;42.722;23.258;2022-10-17T07:38:08;96287.22;;;12.89;65.65
11347;BME280;5728;42.722;23.258;2022-10-17T07:40:35;96282.00;;;12.39;65.55
11347;BME280;5728;42.722;23.258;2022-10-17T07:43:01;96275.06;;;12.52;67.18
11347;BME280;5728;42.722;23.258;2022-10-17T07:45:28;96281.19;;;13.11;65.70
11347;BME280;5728;42.722;23.258;2022-10-17T07:47:55;96283.69;;;13.60;63.50
11347;BME280;5728;42.722;23.258;2022-10-17T07:50:22;96293.13;;;13.94;63.53
11347;BME280;5728;42.722;23.258;2022-10-17T07:52:49;96289.63;;;13.96;62.85
11347;BME280;5728;42.722;23.258;2022-10-17T07:55:17;96292.19;;;14.08;60.96
11347;BME280;5728;42.722;23.258;2022-10-17T07:57:44;96289.63;;;13.96;61.44
11347;BME280;5728;42.722;23.258;2022-10-17T08:00:11;96286.16;;;13.93;60.62
11347;BME280;5728;42.722;23.258;2022-10-17T08:02:38;96279.94;;;14.23;61.92
11347;BME280;5728;42.722;23.258;2022-10-17T08:05:05;96271.66;;;14.94;59.29
11347;BME280;5728;42.722;23.258;2022-10-17T08:07:32;96274.75;;;15.35;57.50
11347;BME280;5728;42.722;23.258;2022-10-17T08:09:59;96271.41;;;16.02;55.03
11347;BME280;5728;42.722;23.258;2022-10-17T08:12:27;96273.44;;;15.80;55.13
11347;BME280;5728;42.722;23.258;2022-10-17T08:14:56;96270.91;;;16.41;57.73
11347;BME280;5728;42.722;23.258;2022-10-17T08:17:23;96267.44;;;15.70;55.25
11347;BME280;5728;42.722;23.258;2022-10-17T08:19:50;96272.63;;;15.73;53.99
11347;BME280;5728;42.722;23.258;2022-10-17T08:22:17;96270.72;;;14.99;56.48
11347;BME280;5728;42.722;23.258;2022-10-17T08:24:43;96269.25;;;15.65;55.47
11347;BME280;5728;42.722;23.258;2022-10-17T08:27:10;96261.59;;;16.19;53.94
11347;BME280;5728;42.722;23.258;2022-10-17T08:29:39;96261.69;;;16.75;51.74
11347;BME280;5728;42.722;23.258;2022-10-17T08:32:07;96264.72;;;17.03;50.93
11347;BME280;5728;42.722;23.258;2022-10-17T08:34:34;96256.94;;;16.40;52.51
11347;BME280;5728;42.722;23.258;2022-10-17T08:37:01;96259.63;;;17.43;50.76
11347;BME280;5728;42.722;23.258;2022-10-17T08:39:28;96261.09;;;16.55;50.57
11347;BME280;5728;42.722;23.258;2022-10-17T08:42:04;96250.13;;;16.88;50.97
11347;BME280;5728;42.722;23.258;2022-10-17T08:44:47;96254.25;;;17.50;50.95
11347;BME280;5728;42.722;23.258;2022-10-17T08:47:20;96259.34;;;18.04;46.97
11347;BME280;5728;42.722;23.258;2022-10-17T08:49:51;96259.38;;;18.43;46.53
11347;BME280;5728;42.722;23.258;2022-10-17T08:52:33;96266.38;;;18.03;47.18
11347;BME280;5728;42.722;23.258;2022-10-17T08:55:02;96263.63;;;18.51;47.75
11347;BME280;5728;42.722;23.258;2022-10-17T08:57:29;96262.41;;;19.02;46.66
11347;BME280;5728;42.722;23.258;2022-10-17T08:59:57;96261.09;;;18.84;45.62
11347;BME280;5728;42.722;23.258;2022-10-17T09:02:36;96259.44;;;19.51;43.50
11347;BME280;5728;42.722;23.258;2022-10-17T09:05:22;96261.19;;;19.83;41.65
11347;BME280;5728;42.722;23.258;2022-10-17T09:07:57;96258.09;;;20.30;41.62
11347;BME280;5728;42.722;23.258;2022-10-17T09:10:33;96261.41;;;20.06;40.65
11347;BME280;5728;42.722;23.258;2022-10-17T09:13:12;96263.25;;;20.62;39.13
11347;BME280;5728;42.722;23.258;2022-10-17T09:15:59;96259.28;;;20.77;37.40
11347;BME280;5728;42.722;23.258;2022-10-17T09:18:34;96266.81;;;20.89;36.66
11347;BME280;5728;42.722;23.258;2022-10-17T09:21:12;96266.25;;;20.21;36.81
11347;BME280;5728;42.722;23.258;2022-10-17T09:23:44;96257.56;;;20.76;38.07
11347;BME280;5728;42.722;23.258;2022-10-17T09:26:12;96257.19;;;21.16;36.08
11347;BME280;5728;42.722;23.258;2022-10-17T09:28:40;96255.97;;;21.52;36.36
11347;BME280;5728;42.722;23.258;2022-10-17T09:31:15;96260.09;;;21.59;34.71
11347;BME280;5728;42.722;23.258;2022-10-17T09:33:47;96257.19;;;21.42;33.12
11347;BME280;5728;42.722;23.258;2022-10-17T09:36:16;96259.50;;;20.97;35.06
11347;BME280;5728;42.722;23.258;2022-10-17T09:38:47;96253.94;;;21.34;34.63
11347;BME280;5728;42.722;23.258;2022-10-17T09:41:18;96252.91;;;21.89;34.76
11347;BME280;5728;42.722;23.258;2022-10-17T09:43:46;96249.50;;;21.85;33.05
11347;BME280;5728;42.722;23.258;2022-10-17T09:46:20;96250.69;;;22.01;32.73
11347;BME280;5728;42.722;23.258;2022-10-17T09:48:51;96245.84;;;22.59;32.05
11347;BME280;5728;42.722;23.258;2022-10-17T09:51:21;96255.19;;;22.22;32.92
11347;BME280;5728;42.722;23.258;2022-10-17T09:53:53;96242.53;;;22.31;31.44
11347;BME280;5728;42.722;23.258;2022-10-17T09:56:21;96246.00;;;22.09;30.95
11347;BME280;5728;42.722;23.258;2022-10-17T09:58:49;96244.94;;;22.13;31.18
11347;BME280;5728;42.722;23.258;2022-10-17T10:01:20;96238.88;;;22.35;30.42
11347;BME280;5728;42.722;23.258;2022-10-17T10:03:51;96227.47;;;22.79;29.97
11347;BME280;5728;42.722;23.258;2022-10-17T10:06:33;96230.09;;;22.79;28.62
11347;BME280;5728;42.722;23.258;2022-10-17T10:09:01;96223.94;;;22.78;28.55
11347;BME280;5728;42.722;23.258;2022-10-17T10:11:44;96216.06;;;22.99;27.83
11347;BME280;5728;42.722;23.258;2022-10-17T10:14:21;96219.03;;;22.91;28.47
11347;BME280;5728;42.722;23.258;2022-10-17T10:16:50;96219.53;;;22.79;28.71
11347;BME280;5728;42.722;23.258;2022-10-17T10:19:25;96224.75;;;23.02;28.43
11347;BME280;5728;42.722;23.258;2022-10-17T10:21:55;96221.69;;;23.33;26.97
11347;BME280;5728;42.722;23.258;2022-10-17T10:24:22;96215.50;;;23.74;26.46
11347;BME280;5728;42.722;23.258;2022-10-17T10:26:50;96216.66;;;23.48;25.76
11347;BME280;5728;42.722;23.258;2022-10-17T10:29:23;96215.66;;;23.51;25.86
11347;BME280;5728;42.722;23.258;2022-10-17T10:31:54;96216.13;;;23.61;25.13
11347;BME280;5728;42.722;23.258;2022-10-17T10:34:24;96213.00;;;23.09;25.69
11347;BME280;5728;42.722;23.258;2022-10-17T10:36:56;96199.34;;;22.98;25.92
11347;BME280;5728;42.722;23.258;2022-10-17T10:39:42;96206.59;;;23.15;24.24
11347;BME280;5728;42.722;23.258;2022-10-17T10:42:25;96199.81;;;23.49;23.34
11347;BME280;5728;42.722;23.258;2022-10-17T10:44:57;96199.13;;;23.46;23.86
11347;BME280;5728;42.722;23.258;2022-10-17T10:47:28;96196.25;;;23.71;24.06
11347;BME280;5728;42.722;23.258;2022-10-17T10:50:17;96193.16;;;23.81;23.35
11347;BME280;5728;42.722;23.258;2022-10-17T10:52:49;96186.78;;;24.24;23.21
11347;BME280;5728;42.722;23.258;2022-10-17T10:55:23;96191.50;;;24.18;23.99
11347;BME280;5728;42.722;23.258;2022-10-17T10:57:55;96190.56;;;24.37;23.58
11347;BME280;5728;42.722;23.258;2022-10-17T11:00:25;96182.13;;;24.29;23.81
11347;BME280;5728;42.722;23.258;2022-10-17T11:02:59;96173.59;;;24.23;24.01
11347;BME280;5728;42.722;23.258;2022-10-17T11:05:39;96174.16;;;24.66;23.94
11347;BME280;5728;42.722;23.258;2022-10-17T11:08:14;96178.03;;;24.41;24.29
11347;BME280;5728;42.722;23.258;2022-10-17T11:10:59;96174.94;;;24.68;24.45
11347;BME280;5728;42.722;23.258;2022-10-17T11:13:32;96176.47;;;25.27;23.70
11347;BME280;5728;42.722;23.258;2022-10-17T11:16:13;96176.09;;;25.52;23.48
11347;BME280;5728;42.722;23.258;2022-10-17T11:18:48;96172.78;;;24.77;23.53
11347;BME280;5728;42.722;23.258;2022-10-17T11:21:21;96174.88;;;24.51;23.97
11347;BME280;5728;42.722;23.258;2022-10-17T11:23:57;96171.00;;;24.58;23.05
11347;BME280;5728;42.722;23.258;2022-10-17T11:26:27;96172.75;;;24.95;22.65
11347;BME280;5728;42.722;23.258;2022-10-17T11:28:57;96170.91;;;24.97;23.23
11347;BME280;5728;42.722;23.258;2022-10-17T11:31:28;96161.94;;;24.62;23.44
11347;BME280;5728;42.722;23.258;2022-10-17T11:34:00;96163.09;;;25.11;23.19
11347;BME280;5728;42.722;23.258;2022-10-17T11:36:30;96163.84;;;24.79;23.34
11347;BME280;5728;42.722;23.258;2022-10-17T11:39:00;96156.81;;;24.59;23.91
11347;BME280;5728;42.722;23.258;2022-10-17T11:41:32;96159.44;;;25.14;24.04
11347;BME280;5728;42.722;23.258;2022-10-17T11:44:07;96150.84;;;25.43;23.49
11347;BME280;5728;42.722;23.258;2022-10-17T11:46:40;96150.44;;;26.00;24.06
11347;BME280;5728;42.722;23.258;2022-10-17T11:49:14;96152.72;;;25.41;24.14
11347;BME280;5728;42.722;23.258;2022-10-17T11:51:45;96141.94;;;25.61;23.93
11347;BME280;5728;42.722;23.258;2022-10-17T11:54:17;96144.47;;;25.47;23.80
11347;BME280;5728;42.722;23.258;2022-10-17T11:57:02;96142.91;;;25.60;23.98
11347;BME280;5728;42.722;23.258;2022-10-17T11:59:51;96140.69;;;25.68;23.79
11347;BME280;5728;42.722;23.258;2022-10-17T12:02:36;96133.91;;;26.11;23.12
11347;BME280;5728;42.722;23.258;2022-10-17T12:05:18;96133.25;;;26.08;23.04
11347;BME280;5728;42.722;23.258;2022-10-17T12:07:50;96135.91;;;26.08;22.42
11347;BME280;5728;42.722;23.258;2022-10-17T12:10:27;96136.72;;;26.56;21.93
11347;BME280;5728;42.722;23.258;2022-10-17T12:13:46;96141.59;;;25.84;21.73
11347;BME280;5728;42.722;23.258;2022-10-17T12:16:46;96136.13;;;26.03;22.24
11347;BME280;5728;42.722;23.258;2022-10-17T12:19:24;96129.22;;;25.33;23.21
11347;BME280;5728;42.722;23.258;2022-10-17T12:21:56;96134.47;;;25.52;22.71
11347;BME280;5728;42.722;23.258;2022-10-17T12:24:33;96139.84;;;25.68;22.52
11347;BME280;5728;42.722;23.258;2022-10-17T12:27:29;96133.81;;;25.64;23.39
11347;BME280;5728;42.722;23.258;2022-10-17T12:29:59;96127.25;;;25.37;23.69
11347;BME280;5728;42.722;23.258;2022-10-17T12:32:26;96126.25;;;25.22;23.30
11347;BME280;5728;42.722;23.258;2022-10-17T12:34:53;96124.59;;;25.37;22.95
11347;BME280;5728;42.722;23.258;2022-10-17T12:41:07;96118.97;;;25.43;22.35
11347;BME280;5728;42.722;23.258;2022-10-17T12:43:54;96118.59;;;26.16;21.88
11347;BME280;5728;42.722;23.258;2022-10-17T12:46:45;96124.38;;;26.24;22.14
11347;BME280;5728;42.722;23.258;2022-10-17T12:49:47;96115.72;;;26.04;22.55
11347;BME280;5728;42.722;23.258;2022-10-17T12:52:23;96114.19;;;25.99;22.96
11347;BME280;5728;42.722;23.258;2022-10-17T12:55:10;96112.44;;;25.83;23.47
11347;BME280;5728;42.722;23.258;2022-10-17T12:57:46;96110.72;;;25.82;23.51
11347;BME280;5728;42.722;23.258;2022-10-17T13:00:18;96123.69;;;25.55;23.41
11347;BME280;5728;42.722;23.258;2022-10-17T13:02:47;96113.03;;;24.87;24.27
11347;BME280;5728;42.722;23.258;2022-10-17T13:05:19;96118.59;;;25.33;23.43
11347;BME280;5728;42.722;23.258;2022-10-17T13:07:48;96108.88;;;25.67;22.91
11347;BME280;5728;42.722;23.258;2022-10-17T13:10:20;96114.34;;;26.29;22.28
11347;BME280;5728;42.722;23.258;2022-10-17T13:12:50;96111.25;;;25.88;23.10
11347;BME280;5728;42.722;23.258;2022-10-17T13:15:19;96107.72;;;26.21;22.71
11347;BME280;5728;42.722;23.258;2022-10-17T13:17:55;96106.66;;;26.08;22.64
11347;BME280;5728;42.722;23.258;2022-10-17T13:20:24;96104.22;;;25.87;22.53
11347;BME280;5728;42.722;23.258;2022-10-17T13:22:53;96103.31;;;25.71;23.18
11347;BME280;5728;42.722;23.258;2022-10-17T13:25:20;96108.16;;;25.96;23.23
11347;BME280;5728;42.722;23.258;2022-10-17T13:27:49;96106.53;;;25.78;22.85
11347;BME280;5728;42.722;23.258;2022-10-17T13:30:24;96099.44;;;25.44;22.98